Time;durP1;ratioP1;P1;durP2;ratioP2;P2;SDS_P1;SDS_P2;PMS_P1;PMS_P2;Temp;Humidity;BMP_temperature;BMP_pressure;BME280_temperature;BME280_humidity;BME280_pressure;Samples;Min_cycle;Max_cycle;Signal;HPM_P1;HPM_P2
2022/04/15 00:02:05;;;;;;;29.90;19.85;;;;;;;5.18;62.88;100708.13;1671951;84;21095;-69
2022/04/15 00:04:34;;;;;;;30.17;20.50;;;;;;;5.17;62.92;100704.66;1671719;84;21126;-69
2022/04/15 00:07:00;;;;;;;31.00;19.60;;;;;;;5.19;62.70;100707.98;1670994;84;20983;-70
2022/04/15 00:09:27;;;;;;;29.70;19.77;;;;;;;5.21;62.81;100700.74;1671989;84;21569;-69
2022/04/15 00:11:56;;;;;;;29.27;19.97;;;;;;;5.23;62.78;100703.25;1660379;84;21055;-70
2022/04/15 00:14:23;;;;;;;30.17;21.73;;;;;;;5.24;62.75;100707.07;1671774;85;21055;-69
2022/04/15 00:16:51;;;;;;;27.93;19.73;;;;;;;5.22;62.95;100703.75;1671774;84;21116;-69
2022/04/15 00:19:17;;;;;;;27.65;20.32;;;;;;;5.20;63.02;100697.77;1671281;84;21023;-69
2022/04/15 00:21:45;;;;;;;34.60;20.07;;;;;;;5.21;62.95;100694.63;1671694;84;21075;-70
2022/04/15 00:24:12;;;;;;;35.13;22.17;;;;;;;5.21;62.72;100698.10;1671845;84;21622;-68
2022/04/15 00:26:39;;;;;;;30.83;20.00;;;;;;;5.22;62.71;100695.81;1670523;84;21051;-70
2022/04/15 00:29:07;;;;;;;30.13;19.53;;;;;;;5.23;62.88;100698.78;1671182;84;21043;-70
2022/04/15 00:31:34;;;;;;;33.45;22.98;;;;;;;5.23;62.97;100696.14;1671921;84;21031;-70
2022/04/15 00:34:03;;;;;;;31.73;21.73;;;;;;;5.23;63.19;100700.61;1671103;84;21073;-70
2022/04/15 00:36:30;;;;;;;34.20;21.90;;;;;;;5.20;63.20;100694.30;1652552;84;21234;-69
2022/04/15 00:38:56;;;;;;;32.28;21.10;;;;;;;5.20;63.28;100692.98;1671030;84;21057;-69
2022/04/15 00:41:24;;;;;;;33.37;21.23;;;;;;;5.16;63.42;100696.40;1671688;84;21143;-70
2022/04/15 00:43:55;;;;;;;32.38;20.43;;;;;;;5.14;63.51;100690.43;1652392;84;21380;-69
2022/04/15 00:46:23;;;;;;;30.93;21.20;;;;;;;4.75;63.50;100622.35;1671222;86;21078;-70
2022/04/15 00:48:49;;;;;;;29.83;21.20;;;;;;;5.19;63.62;100686.84;1671617;84;21530;-70
2022/04/15 00:51:17;;;;;;;31.60;21.60;;;;;;;5.21;63.79;100682.74;1671157;84;21079;-69
2022/04/15 00:53:45;;;;;;;32.93;21.68;;;;;;;5.19;63.82;100682.05;1671352;84;21161;-69
2022/04/15 00:56:14;;;;;;;31.57;21.83;;;;;;;5.12;63.95;100676.50;1671366;84;21041;-69
2022/04/15 00:58:41;;;;;;;30.53;22.47;;;;;;;5.07;64.08;100678.77;1654551;84;21019;-69
2022/04/15 01:01:09;;;;;;;32.77;21.97;;;;;;;5.02;64.30;100672.58;1671989;84;21054;-69
2022/04/15 01:03:36;;;;;;;38.30;23.50;;;;;;;4.99;64.40;100674.67;1658877;84;21550;-69
2022/04/15 01:06:06;;;;;;;38.20;24.30;;;;;;;4.97;64.37;100680.59;1666378;84;21016;-69
2022/04/15 01:08:38;;;;;;;33.50;22.27;;;;;;;4.96;64.02;100678.44;1671157;84;21146;-69
2022/04/15 01:11:09;;;;;;;33.90;23.20;;;;;;;4.99;63.93;100674.20;1670956;84;21055;-70
2022/04/15 01:13:38;;;;;;;36.87;22.53;;;;;;;4.98;63.83;100675.16;1671608;84;21056;-70
2022/04/15 01:16:06;;;;;;;35.13;22.83;;;;;;;5.01;63.95;100678.00;1658433;84;21071;-70
2022/04/15 01:18:32;;;;;;;34.50;21.73;;;;;;;4.98;64.05;100677.80;1665354;84;21428;-70
2022/04/15 01:21:01;;;;;;;31.63;22.13;;;;;;;4.95;64.35;100679.41;1671640;84;21071;-70
2022/04/15 01:23:27;;;;;;;35.83;21.90;;;;;;;4.90;64.47;100679.48;1671888;84;21007;-70
2022/04/15 01:25:53;;;;;;;;;;;;;;;4.83;64.71;100681.88;1674410;84;21067;-69
2022/04/15 01:28:20;;;;;;;32.57;21.00;;;;;;;4.76;64.88;100678.14;1670989;84;20131;-70
2022/04/15 01:30:48;;;;;;;30.43;20.23;;;;;;;4.72;65.20;100674.13;1658966;84;21074;-71
2022/04/15 01:33:16;;;;;;;34.27;21.13;;;;;;;4.70;65.42;100674.26;1647038;84;21547;-69
2022/04/15 01:35:42;;;;;;;32.10;20.80;;;;;;;4.32;65.52;100612.63;1665110;84;21165;-69
2022/04/15 01:38:14;;;;;;;33.18;21.25;;;;;;;4.70;65.69;100676.08;1658496;84;21063;-70
2022/04/15 01:40:43;;;;;;;33.20;21.77;;;;;;;4.65;65.92;100672.06;1671657;84;21468;-69
2022/04/15 01:43:11;;;;;;;33.13;22.37;;;;;;;4.63;65.95;100667.87;1671289;84;21134;-70
2022/04/15 01:45:37;;;;;;;36.23;22.07;;;;;;;4.61;65.97;100668.01;1670151;84;21619;-70
2022/04/15 01:48:04;;;;;;;32.83;22.00;;;;;;;4.62;65.90;100665.73;1646634;84;21551;-69
2022/04/15 01:50:32;;;;;;;29.40;20.13;;;;;;;4.66;65.93;100664.96;1660089;84;21069;-70
2022/04/15 01:52:58;;;;;;;;;;;;;;;4.67;65.88;100670.57;1673479;84;21027;-69
2022/04/15 01:55:25;;;;;;;31.33;20.23;;;;;;;4.66;66.07;100670.24;1663635;84;20131;-70
2022/04/15 01:57:51;;;;;;;32.38;21.65;;;;;;;4.56;66.29;100666.77;1684995;84;21042;-69
2022/04/15 02:00:19;;;;;;;33.28;21.33;;;;;;;4.54;66.47;100669.58;1682950;84;21040;-71
2022/04/15 02:02:47;;;;;;;29.83;20.43;;;;;;;4.49;66.41;100663.38;1685315;84;21589;-69
2022/04/15 02:05:13;;;;;;;34.60;22.10;;;;;;;4.41;66.58;100664.58;1685779;84;21107;-69
2022/04/15 02:07:40;;;;;;;26.87;20.40;;;;;;;4.39;66.70;100662.56;1678447;85;21609;-70
2022/04/15 02:10:08;;;;;;;31.27;20.57;;;;;;;4.44;66.66;100660.31;1684158;84;21050;-69
2022/04/15 02:12:34;;;;;;;33.67;20.27;;;;;;;4.49;66.64;100662.06;1684836;84;21108;-69
2022/04/15 02:15:02;;;;;;;29.40;20.00;;;;;;;4.54;66.42;100663.44;1685937;84;21423;-69
2022/04/15 02:17:28;;;;;;;26.97;18.37;;;;;;;4.58;66.40;100657.75;1685827;84;21062;-70
2022/04/15 02:19:54;;;;;;;29.92;19.10;;;;;;;4.56;66.44;100659.70;1684472;84;21078;-69
2022/04/15 02:22:20;;;;;;;26.45;17.70;;;;;;;4.53;66.52;100659.15;1671932;83;21072;-69
2022/04/15 02:24:47;;;;;;;25.12;16.90;;;;;;;4.49;66.62;100659.42;1682376;84;21034;-69
2022/04/15 02:27:15;;;;;;;28.87;18.40;;;;;;;4.45;66.72;100659.86;1685613;84;21034;-69
2022/04/15 02:29:41;;;;;;;27.27;17.25;;;;;;;4.42;66.85;100659.62;1685782;84;21029;-69
2022/04/15 02:32:08;;;;;;;28.95;19.27;;;;;;;4.42;66.92;100658.80;1685585;84;21069;-69
2022/04/15 02:34:34;;;;;;;23.10;16.73;;;;;;;4.41;66.82;100653.20;1685440;84;21336;-69
2022/04/15 02:37:01;;;;;;;26.62;18.52;;;;;;;4.41;66.75;100652.70;1685609;84;21011;-69
2022/04/15 02:39:27;;;;;;;29.18;19.30;;;;;;;4.40;66.73;100657.62;1685647;84;21050;-69
2022/04/15 02:41:56;;;;;;;28.03;18.97;;;;;;;4.39;66.72;100648.05;1685479;84;21061;-69
2022/04/15 02:44:23;;;;;;;23.97;17.20;;;;;;;4.40;66.67;100654.16;1685314;84;21581;-69
2022/04/15 02:46:51;;;;;;;24.57;17.40;;;;;;;4.40;66.48;100651.02;1684755;84;21612;-69
2022/04/15 02:49:19;;;;;;;24.70;17.43;;;;;;;4.46;66.33;100655.76;1685391;84;21105;-70
2022/04/15 02:51:45;;;;;;;22.15;16.97;;;;;;;4.51;66.21;100653.17;1685555;84;21039;-70
2022/04/15 02:54:12;;;;;;;26.00;17.73;;;;;;;4.56;66.11;100652.25;1685476;84;21057;-69
2022/04/15 02:56:38;;;;;;;26.37;17.60;;;;;;;4.59;66.03;100651.97;1672397;84;21108;-71
2022/04/15 02:59:04;;;;;;;24.02;17.87;;;;;;;4.58;66.02;100651.15;1685718;84;21537;-69
2022/04/15 03:01:32;;;;;;;24.63;16.03;;;;;;;4.58;65.84;100650.33;1685110;84;21066;-68
2022/04/15 03:03:59;;;;;;;22.52;16.42;;;;;;;4.56;65.97;100643.86;1685580;84;21086;-69
2022/04/15 03:06:26;;;;;;;28.07;18.53;;;;;;;4.55;66.14;100647.95;1685430;84;21010;-69
2022/04/15 03:08:52;;;;;;;26.23;18.67;;;;;;;4.52;66.26;100650.41;1684760;84;21094;-69
2022/04/15 03:11:19;;;;;;;25.13;17.90;;;;;;;4.49;66.41;100642.27;1685132;84;21058;-70
2022/04/15 03:13:45;;;;;;;26.35;16.80;;;;;;;4.48;66.67;100644.57;1685139;84;21176;-69
2022/04/15 03:16:12;;;;;;;23.50;17.03;;;;;;;4.45;66.88;100643.52;1685106;84;21073;-70
2022/04/15 03:18:40;;;;;;;26.07;19.13;;;;;;;4.44;67.06;100641.02;1683371;84;21110;-69
2022/04/15 03:21:08;;;;;;;25.87;18.47;;;;;;;4.44;67.12;100639.70;1685309;84;21058;-70
2022/04/15 03:23:36;;;;;;;25.73;18.03;;;;;;;4.48;66.97;100641.93;1685471;84;21097;-69
2022/04/15 03:26:02;;;;;;;24.98;17.65;;;;;;;4.58;66.68;100633.16;1685831;84;21613;-69
2022/04/15 03:28:28;;;;;;;26.57;17.80;;;;;;;4.67;66.53;100637.56;1685522;84;21070;-70
2022/04/15 03:30:54;;;;;;;23.92;17.35;;;;;;;4.75;66.47;100631.10;1685667;84;21042;-70
2022/04/15 03:33:20;;;;;;;24.32;17.23;;;;;;;4.81;66.31;100634.48;1685672;84;21069;-69
2022/04/15 03:35:48;;;;;;;27.30;18.30;;;;;;;4.90;65.92;100640.72;1685399;84;21216;-69
2022/04/15 03:38:14;;;;;;;25.75;18.02;;;;;;;4.97;65.53;100643.60;1685610;84;21152;-69
2022/04/15 03:40:40;;;;;;;20.07;16.83;;;;;;;5.04;65.33;100640.23;1685282;84;21028;-70
2022/04/15 03:43:07;;;;;;;25.10;17.62;;;;;;;5.14;65.05;100640.22;1685504;84;21090;-71
2022/04/15 03:45:33;;;;;;;25.82;18.87;;;;;;;5.28;64.71;100640.22;1685599;83;21065;-70
2022/04/15 03:47:59;;;;;;;23.80;18.20;;;;;;;5.41;64.33;100638.06;1685579;84;22175;-70
2022/04/15 03:50:26;;;;;;;24.47;17.42;;;;;;;5.56;63.98;100641.05;1668963;84;21140;-70
2022/04/15 03:52:55;;;;;;;22.87;18.05;;;;;;;5.75;63.79;100637.94;1658235;85;21110;-70
2022/04/15 03:55:24;;;;;;;25.30;18.17;;;;;;;5.97;63.41;100640.19;1672154;83;21209;-69
2022/04/15 03:57:51;;;;;;;24.27;17.73;;;;;;;6.17;62.63;100624.96;1685345;84;21077;-70
2022/04/15 04:00:20;;;;;;;25.85;18.07;;;;;;;6.53;61.91;100637.32;1665987;83;21073;-70
2022/04/15 04:02:50;;;;;;;23.10;18.40;;;;;;;6.79;61.39;100638.16;1673237;84;21044;-71
2022/04/15 04:05:17;;;;;;;25.47;19.20;;;;;;;7.06;60.81;100636.81;1679431;84;21026;-70
2022/04/15 04:07:45;;;;;;;25.23;20.40;;;;;;;7.33;59.80;100631.31;1685102;84;21134;-70
2022/04/15 04:10:14;;;;;;;30.13;20.73;;;;;;;7.64;58.91;100629.91;1683295;84;21082;-70
2022/04/15 04:12:42;;;;;;;34.10;24.00;;;;;;;7.99;57.22;100628.83;1685290;84;21118;-70
2022/04/15 04:15:12;;;;;;;29.80;22.80;;;;;;;8.29;56.00;100627.34;1685733;84;21017;-71
2022/04/15 04:18:33;;;;;;;31.73;23.30;;;;;;;8.73;54.09;100624.33;1816450;79;22235;-70
2022/04/15 04:20:59;;;;;;;38.88;27.37;;;;;;;8.92;53.04;100622.30;1779755;80;21134;-70
2022/04/15 04:23:25;;;;;;;33.70;25.85;;;;;;;9.16;51.85;100625.39;1741715;80;21056;-72
2022/04/15 04:25:53;;;;;;;30.33;23.20;;;;;;;9.41;51.68;100621.29;1731060;81;21102;-71
2022/04/15 04:28:21;;;;;;;33.50;25.57;;;;;;;9.77;50.72;100621.58;1733281;81;21071;-71
2022/04/15 04:30:48;;;;;;;33.60;23.97;;;;;;;10.19;49.64;100611.46;1761335;81;21100;-71
2022/04/15 04:33:14;;;;;;;33.45;23.67;;;;;;;10.70;48.59;100611.20;1756912;80;21092;-72
2022/04/15 04:35:40;;;;;;;29.48;22.55;;;;;;;11.26;46.89;100610.74;1736490;81;21063;-72
2022/04/15 04:38:07;;;;;;;34.98;23.47;;;;;;;11.71;46.33;100610.63;1740787;81;21047;-72
2022/04/15 04:40:34;;;;;;;36.97;24.73;;;;;;;12.13;45.07;100608.19;1744957;81;21050;-72
2022/04/15 04:43:02;;;;;;;32.43;22.40;;;;;;;12.44;44.30;100602.49;1749247;81;21022;-72
2022/04/15 04:45:29;;;;;;;32.37;24.10;;;;;;;12.78;43.46;100603.03;1718891;82;21077;-72
2022/04/15 04:48:03;;;;;;;31.10;23.60;;;;;;;13.10;42.08;100596.72;1704368;84;21105;-72
2022/04/15 04:50:30;;;;;;;33.08;23.75;;;;;;;13.34;41.65;100596.77;1709048;82;21097;-71
2022/04/15 04:52:59;;;;;;;30.95;22.67;;;;;;;13.58;41.05;100598.58;1718395;82;21116;-72
2022/04/15 04:55:26;;;;;;;29.40;21.93;;;;;;;13.76;40.23;100591.32;1718310;83;21533;-72
2022/04/15 04:57:52;;;;;;;34.65;23.90;;;;;;;13.92;39.61;100572.68;1728718;83;21201;-71
2022/04/15 05:00:18;;;;;;;33.40;23.18;;;;;;;14.09;38.72;100590.03;1728411;82;22264;-72
2022/04/15 05:02:45;;;;;;;29.70;22.75;;;;;;;14.10;38.59;100591.67;1714327;83;21106;-72
2022/04/15 05:05:12;;;;;;;30.80;21.45;;;;;;;14.16;38.70;100584.14;1675720;83;22453;-72
2022/04/15 05:07:39;;;;;;;25.65;20.85;;;;;;;14.43;38.85;100588.67;1693560;84;21067;-72
2022/04/15 05:10:07;;;;;;;32.80;21.90;;;;;;;14.84;38.15;100592.45;1681603;84;21017;-71
2022/04/15 05:12:35;;;;;;;28.70;23.15;;;;;;;15.32;37.27;100592.10;1706828;82;21137;-72
2022/04/15 05:15:01;;;;;;;30.32;22.90;;;;;;;15.72;35.90;100589.20;1718694;82;21022;-73
2022/04/15 05:17:27;;;;;;;31.12;21.82;;;;;;;15.91;35.34;100590.14;1719916;83;21076;-73
2022/04/15 05:19:53;;;;;;;26.30;22.00;;;;;;;16.05;35.43;100585.51;1714043;83;21077;-73
2022/04/15 05:22:22;;;;;;;30.82;22.35;;;;;;;16.29;35.25;100587.91;1699746;82;21078;-72
2022/04/15 05:24:48;;;;;;;29.92;22.40;;;;;;;16.52;34.96;100590.50;1688608;84;21146;-73
2022/04/15 05:27:14;;;;;;;32.17;22.30;;;;;;;16.78;34.69;100584.00;1690070;84;21093;-73
2022/04/15 05:29:40;;;;;;;29.87;21.93;;;;;;;16.99;33.81;100585.48;1670766;85;21127;-72
2022/04/15 05:32:07;;;;;;;;;;;;;;;17.03;33.70;100588.03;1737477;81;21569;-72
2022/04/15 05:34:33;;;;;;;26.48;19.48;;;;;;;17.20;33.32;100590.13;1710697;82;20218;-72
2022/04/15 05:36:59;;;;;;;25.40;17.92;;;;;;;17.34;33.05;100585.38;1729457;82;21035;-71
2022/04/15 05:39:25;;;;;;;;;;;;;;;17.49;32.45;100589.84;1712095;82;21105;-74
2022/04/15 05:41:53;;;;;;;23.75;19.25;;;;;;;17.57;32.39;100587.34;1728205;82;20162;-73
2022/04/15 05:44:19;;;;;;;20.05;16.90;;;;;;;17.61;32.23;100587.18;1710549;82;21581;-73
2022/04/15 05:46:47;;;;;;;18.57;15.40;;;;;;;17.71;31.77;100588.28;1671867;84;21047;-72
2022/04/15 05:49:14;;;;;;;;;;;;;;;17.78;31.21;100580.11;1681767;84;21035;-73
2022/04/15 05:51:43;;;;;;;15.98;12.90;;;;;;;17.94;30.05;100570.55;1696318;84;20171;-74
2022/04/15 05:54:10;;;;;;;14.05;12.18;;;;;;;18.00;29.97;100569.63;1703046;84;21065;-72
2022/04/15 05:56:38;;;;;;;13.22;11.80;;;;;;;18.28;30.01;100572.19;1687978;84;21173;-72
2022/04/15 05:59:05;;;;;;;15.40;12.75;;;;;;;18.28;30.01;100572.19;1676232;84;21610;-72
2022/04/15 06:01:31;;;;;;;13.15;11.45;;;;;;;18.55;29.66;100573.88;1670226;83;21567;-73
2022/04/15 06:03:58;;;;;;;12.40;10.60;;;;;;;18.84;29.24;100566.73;1686385;83;21622;-73
2022/04/15 06:06:25;;;;;;;12.82;11.15;;;;;;;19.09;28.68;100565.63;1696241;83;21565;-73
2022/04/15 06:08:51;;;;;;;15.60;11.03;;;;;;;19.23;28.18;100567.00;1676146;83;21075;-73
2022/04/15 06:11:18;;;;;;;12.20;10.85;;;;;;;19.32;28.37;100559.84;1669091;83;21181;-73
2022/04/15 06:13:47;;;;;;;;;;;;;;;19.38;28.06;100553.47;1729826;83;21040;-73
2022/04/15 06:16:17;;;;;;;10.05;9.08;;;;;;;19.29;27.21;100554.91;1727575;82;20422;-71
2022/04/15 06:18:45;;;;;;;11.63;8.00;;;;;;;19.22;28.35;100548.31;1727581;82;21091;-72
2022/04/15 06:21:12;;;;;;;10.98;7.80;;;;;;;19.35;27.85;100557.48;1705912;81;22277;-73
2022/04/15 06:23:38;;;;;;;8.55;7.58;;;;;;;19.54;26.61;100552.70;1693405;83;21186;-74
2022/04/15 06:26:06;;;;;;;7.90;7.17;;;;;;;19.39;26.19;100551.07;1676455;84;21074;-72
2022/04/15 06:28:33;;;;;;;8.18;7.25;;;;;;;19.17;26.79;100550.38;1638647;86;22467;-72
2022/04/15 06:30:59;;;;;;;;;;;;;;;19.15;27.62;100543.04;1618716;86;21126;-74
2022/04/15 06:33:26;;;;;;;12.05;6.92;;;;;;;19.19;26.57;100539.33;1647683;85;20159;-73
2022/04/15 06:35:52;;;;;;;8.53;7.25;;;;;;;18.96;26.60;100534.83;1663627;84;21109;-73
2022/04/15 06:38:19;;;;;;;8.43;7.70;;;;;;;18.83;26.83;100538.07;1669168;84;21276;-72
2022/04/15 06:40:45;;;;;;;8.33;7.47;;;;;;;18.67;26.69;100538.80;1675597;84;21068;-73
2022/04/15 06:43:14;;;;;;;7.58;6.55;;;;;;;18.56;27.09;100539.63;1675908;84;21132;-72
2022/04/15 06:45:40;;;;;;;8.15;7.17;;;;;;;18.61;27.23;100537.86;1657288;84;21027;-73
2022/04/15 06:48:08;;;;;;;7.37;6.55;;;;;;;18.74;27.70;100534.60;1685198;84;21568;-73
2022/04/15 06:50:34;;;;;;;7.12;6.42;;;;;;;18.81;26.33;100534.80;1675236;84;21084;-72
2022/04/15 06:53:01;;;;;;;;;;;;;;;18.77;26.89;100530.90;1681592;85;21059;-74
2022/04/15 06:55:27;;;;;;;7.62;6.37;;;;;;;18.87;26.73;100533.02;1683953;84;20157;-72
2022/04/15 06:57:53;;;;;;;14.05;7.75;;;;;;;18.64;27.03;100530.62;1672360;84;21127;-72
2022/04/15 07:00:21;;;;;;;9.33;7.47;;;;;;;18.44;26.97;100526.97;1676902;84;21032;-73
2022/04/15 07:02:47;;;;;;;5.83;5.33;;;;;;;18.38;28.22;100529.23;1671538;84;21045;-72
2022/04/15 07:05:13;;;;;;;;;;;;;;;18.32;27.12;100522.09;1648098;85;21198;-71
2022/04/15 07:07:40;;;;;;;7.73;6.17;;;;;;;17.95;28.68;100522.83;1644284;85;20152;-71
2022/04/15 07:10:10;;;;;;;9.25;5.08;;;;;;;17.95;28.68;100522.83;1643860;85;21592;-73
2022/04/15 07:12:38;;;;;;;9.80;6.47;;;;;;;17.86;28.04;100522.36;1648665;85;21640;-73
2022/04/15 07:15:06;;;;;;;7.28;6.42;;;;;;;17.77;28.22;100522.38;1675888;85;21541;-72
2022/04/15 07:17:32;;;;;;;7.40;5.35;;;;;;;17.65;28.73;100515.08;1691502;84;21208;-72
2022/04/15 07:20:01;;;;;;;7.12;5.35;;;;;;;17.54;28.84;100519.91;1682339;84;21055;-72
2022/04/15 07:22:27;;;;;;;11.50;5.50;;;;;;;17.45;28.38;100520.75;1681539;84;21515;-73
2022/04/15 07:24:53;;;;;;;;;;;;;;;17.36;28.69;100522.13;1613913;88;21332;-70
2022/04/15 07:27:19;;;;;;;10.48;5.17;;;;;;;17.25;28.87;100526.44;1642515;86;20164;-73
2022/04/15 07:29:45;;;;;;;;;;;;;;;17.08;28.81;100518.66;1613406;88;21128;-72
2022/04/15 07:32:13;;;;;;;5.28;3.22;;;;;;;16.99;28.73;100519.52;1642064;86;20153;-73
2022/04/15 07:34:39;;;;;;;6.60;3.98;;;;;;;16.79;28.44;100519.72;1622471;87;21554;-72
2022/04/15 07:37:07;;;;;;;5.83;3.98;;;;;;;16.70;28.31;100523.22;1601572;88;21216;-72
2022/04/15 07:39:34;;;;;;;4.10;2.95;;;;;;;16.67;28.40;100520.15;1623901;87;22249;-72
2022/04/15 07:42:00;;;;;;;5.45;3.33;;;;;;;16.57;28.01;100513.13;1620711;87;21121;-73
2022/04/15 07:44:27;;;;;;;7.15;3.55;;;;;;;16.36;28.30;100513.86;1639205;87;21397;-73
2022/04/15 07:46:56;;;;;;;7.78;4.20;;;;;;;16.33;29.20;100512.95;1645808;87;21089;-73
2022/04/15 07:49:22;;;;;;;8.93;3.90;;;;;;;16.37;29.31;100507.45;1648791;85;21145;-73
2022/04/15 07:51:48;;;;;;;10.25;4.58;;;;;;;16.41;28.88;100504.61;1627618;86;21760;-73
2022/04/15 07:54:15;;;;;;;8.30;3.02;;;;;;;16.45;28.65;100501.77;1631770;86;21114;-71
2022/04/15 07:56:42;;;;;;;4.35;2.85;;;;;;;16.21;29.18;100456.91;1651225;85;21671;-71
2022/04/15 07:59:09;;;;;;;5.17;2.85;;;;;;;16.45;27.85;100502.30;1649192;85;21570;-73
2022/04/15 08:01:35;;;;;;;;;;;;;;;16.37;28.24;100499.88;1660928;86;21106;-71
2022/04/15 08:04:01;;;;;;;4.22;2.47;;;;;;;16.34;28.89;100491.74;1639497;86;20174;-72
2022/04/15 08:06:29;;;;;;;4.10;1.65;;;;;;;16.29;28.37;100487.05;1692728;83;21051;-72
2022/04/15 08:08:57;;;;;;;5.03;2.10;;;;;;;16.25;28.73;100483.66;1692838;83;21193;-72
2022/04/15 08:11:25;;;;;;;3.22;1.35;;;;;;;16.26;28.74;100481.28;1698131;83;21270;-72
2022/04/15 08:13:53;;;;;;;12.63;2.12;;;;;;;16.34;28.41;100476.42;1708201;82;21660;-73
2022/04/15 08:16:21;;;;;;;1.92;1.30;;;;;;;16.35;28.21;100482.11;1707900;82;21089;-72
2022/04/15 08:18:49;;;;;;;1.57;1.02;;;;;;;16.32;27.97;100474.48;1708007;82;21081;-72
2022/04/15 08:21:17;;;;;;;3.60;1.47;;;;;;;16.35;28.38;100475.92;1707990;82;22223;-71
2022/04/15 08:23:44;;;;;;;6.22;1.90;;;;;;;16.48;28.23;100473.08;1685154;84;21033;-72
2022/04/15 08:26:12;;;;;;;1.70;1.55;;;;;;;16.63;28.10;100470.52;1704361;84;21585;-72
2022/04/15 08:28:38;;;;;;;1.90;1.30;;;;;;;16.79;27.82;100469.92;1706646;84;21626;-72
2022/04/15 08:31:06;;;;;;;3.40;0.88;;;;;;;16.89;27.84;100474.79;1702183;84;21153;-73
2022/04/15 08:33:32;;;;;;;3.50;1.52;;;;;;;16.93;27.57;100467.90;1705539;83;21087;-73
2022/04/15 08:35:58;;;;;;;4.62;1.27;;;;;;;16.98;27.74;100466.70;1712527;83;21094;-73
2022/04/15 08:38:25;;;;;;;2.10;1.17;;;;;;;17.10;27.63;100460.01;1693423;83;21070;-73
2022/04/15 08:40:56;;;;;;;1.65;1.15;;;;;;;17.23;27.23;100458.47;1694053;83;21105;-72
2022/04/15 08:43:25;;;;;;;2.35;0.93;;;;;;;17.34;27.21;100456.06;1693614;83;21109;-73
2022/04/15 08:45:52;;;;;;;3.22;0.95;;;;;;;17.32;26.43;100462.48;1704440;83;21644;-73
2022/04/15 08:48:18;;;;;;;2.58;1.15;;;;;;;17.30;26.35;100456.51;1708313;84;21106;-73
2022/04/15 08:50:44;;;;;;;;;;;;;;;17.18;26.19;100448.94;1704303;83;21038;-73
2022/04/15 08:53:14;;;;;;;1.07;0.70;;;;;;;17.11;27.19;100446.85;1704865;84;20181;-73
2022/04/15 08:55:40;;;;;;;4.37;1.87;;;;;;;17.09;27.17;100443.57;1702882;84;21062;-73
2022/04/15 08:58:06;;;;;;;1.75;0.70;;;;;;;17.17;27.21;100438.38;1705236;84;21056;-72
2022/04/15 09:00:33;;;;;;;2.67;1.02;;;;;;;17.26;26.93;100428.92;1706119;84;21042;-73
2022/04/15 09:02:59;;;;;;;;;;;;;;;17.38;27.09;100435.15;1710917;83;21217;-72
2022/04/15 09:05:30;;;;;;;4.60;1.00;;;;;;;17.52;27.10;100430.39;1708327;83;20224;-74
2022/04/15 09:08:08;;;;;;;4.03;1.07;;;;;;;17.58;26.92;100425.41;1707355;83;21566;-71
2022/04/15 09:10:42;;;;;;;1.40;0.78;;;;;;;17.72;26.75;100421.95;1724327;82;21086;-73
2022/04/15 09:13:28;;;;;;;2.00;0.68;;;;;;;17.82;26.05;100418.67;1709958;82;21073;-73
2022/04/15 09:15:52;;;;;;;1.10;1.00;;;;;;;17.75;26.01;100413.41;1706637;82;21147;-73
2022/04/15 09:18:34;;;;;;;2.55;1.05;;;;;;;17.68;26.25;100414.86;1708022;82;21550;-73
2022/04/15 09:21:24;;;;;;;4.33;1.42;;;;;;;17.54;26.59;100398.64;1707663;82;21062;-71
2022/04/15 09:23:54;;;;;;;2.67;1.07;;;;;;;17.54;26.59;100398.64;1708157;82;21525;-74
2022/04/15 09:26:22;;;;;;;4.75;0.72;;;;;;;17.53;26.34;100402.38;1708230;82;21034;-73
2022/04/15 09:28:49;;;;;;;2.62;0.75;;;;;;;17.60;26.50;100400.93;1706621;82;21065;-72
2022/04/15 09:31:18;;;;;;;0.80;0.80;;;;;;;17.67;26.13;100398.95;1729558;82;21062;-72
2022/04/15 09:33:57;;;;;;;1.95;1.05;;;;;;;17.70;26.31;100392.53;1708113;82;21038;-72
2022/04/15 09:36:35;;;;;;;1.70;1.15;;;;;;;17.64;25.90;100384.05;1722145;83;21577;-72
2022/04/15 09:39:10;;;;;;;;;;;;;;;17.62;26.06;100383.46;1714601;83;21673;-72
2022/04/15 09:41:40;;;;;;;2.30;1.02;;;;;;;17.62;26.33;100379.42;1714340;83;20425;-73
2022/04/15 09:44:12;;;;;;;2.08;1.00;;;;;;;17.61;26.26;100375.09;1722652;82;21045;-72
2022/04/15 09:46:45;;;;;;;1.50;0.60;;;;;;;17.67;26.44;100362.02;1738370;82;21018;-73
2022/04/15 09:49:13;;;;;;;1.25;1.07;;;;;;;17.69;25.94;100365.30;1731111;82;21131;-73
2022/04/15 09:51:54;;;;;;;1.42;1.00;;;;;;;17.69;25.94;100365.30;1704693;84;21510;-72
2022/04/15 09:54:25;;;;;;;3.42;1.17;;;;;;;17.67;26.25;100341.00;1703805;83;21128;-72
2022/04/15 09:57:00;;;;;;;1.77;0.80;;;;;;;17.72;26.22;100349.17;1728300;82;21062;-73
2022/04/15 09:59:29;;;;;;;3.02;0.82;;;;;;;17.92;26.63;100342.11;1694315;83;21557;-72
2022/04/15 10:02:02;;;;;;;3.22;0.60;;;;;;;17.92;26.63;100342.11;1692436;83;21066;-72
2022/04/15 10:04:32;;;;;;;0.82;0.60;;;;;;;18.04;25.75;100334.80;1680403;84;21047;-72
2022/04/15 10:07:00;;;;;;;1.10;0.93;;;;;;;18.09;26.21;100333.56;1684514;84;21105;-71
2022/04/15 10:09:27;;;;;;;2.12;0.80;;;;;;;18.20;26.01;100328.39;1660085;84;21103;-73
2022/04/15 10:11:56;;;;;;;1.70;0.70;;;;;;;18.29;25.64;100316.98;1698678;82;21105;-73
2022/04/15 10:14:24;;;;;;;0.75;0.57;;;;;;;18.34;25.48;100311.39;1723075;82;21131;-71
2022/04/15 10:16:52;;;;;;;1.55;1.10;;;;;;;18.35;25.48;100299.02;1723084;82;20967;-72
2022/04/15 10:19:20;;;;;;;1.32;0.60;;;;;;;18.35;25.47;100299.02;1722927;82;21049;-73
2022/04/15 10:21:51;;;;;;;1.00;0.65;;;;;;;18.39;26.01;100289.37;1722740;82;21051;-72
2022/04/15 10:24:24;;;;;;;1.20;0.60;;;;;;;18.46;25.69;100302.19;1721644;81;21054;-73
2022/04/15 10:26:59;;;;;;;1.20;0.53;;;;;;;18.40;25.43;100300.97;1721523;83;21196;-74
2022/04/15 10:29:25;;;;;;;1.27;0.55;;;;;;;18.29;25.75;100299.98;1723283;82;21093;-73
2022/04/15 10:31:54;;;;;;;2.15;0.75;;;;;;;18.28;26.18;100292.39;1722788;82;21027;-74
2022/04/15 10:34:22;;;;;;;1.55;1.00;;;;;;;18.36;25.59;100296.59;1706659;82;21141;-74
2022/04/15 10:36:54;;;;;;;3.27;0.80;;;;;;;18.37;25.53;100296.08;1720760;82;21140;-73
2022/04/15 10:39:23;;;;;;;1.57;1.07;;;;;;;18.37;25.59;100285.28;1723233;82;21026;-73
2022/04/15 10:41:59;;;;;;;1.22;0.82;;;;;;;18.36;25.66;100289.03;1723116;82;21124;-72
2022/04/15 10:44:40;;;;;;;2.00;0.72;;;;;;;18.41;25.60;100279.16;1725169;82;22104;-73
2022/04/15 10:47:22;;;;;;;6.25;0.88;;;;;;;18.38;25.49;100275.58;1735561;82;21551;-71
2022/04/15 10:50:01;;;;;;;0.82;0.82;;;;;;;18.43;25.97;100276.22;1735462;83;21043;-73
2022/04/15 10:52:30;;;;;;;3.00;0.80;;;;;;;18.57;25.62;100268.63;1726376;82;21121;-72
2022/04/15 10:55:07;;;;;;;2.17;1.20;;;;;;;18.57;25.62;100268.63;1726770;82;21106;-71
2022/04/15 10:57:40;;;;;;;3.35;1.20;;;;;;;18.59;25.44;100274.59;1735522;82;21569;-72
2022/04/15 11:03:27;;;;;;;2.85;0.90;;;;;;;18.65;25.48;100263.66;1712565;82;21074;-73
2022/04/15 11:05:59;;;;;;;2.30;0.78;;;;;;;18.67;25.37;100265.58;1744772;81;21152;-71
2022/04/15 11:08:27;;;;;;;1.25;0.80;;;;;;;18.68;25.34;100265.88;1722995;82;21542;-73
2022/04/15 11:10:59;;;;;;;2.33;0.85;;;;;;;18.67;24.94;100263.42;1721452;82;21485;-71
2022/04/15 11:13:40;;;;;;;2.22;1.20;;;;;;;18.66;25.87;100258.53;1703247;83;21078;-73
2022/04/15 11:16:14;;;;;;;3.87;1.42;;;;;;;18.73;25.36;100250.29;1718835;82;21161;-73
2022/04/15 11:18:54;;;;;;;2.08;1.40;;;;;;;18.78;25.60;100242.28;1707284;82;21078;-71
2022/04/15 11:21:32;;;;;;;3.22;1.60;;;;;;;18.85;25.35;100238.92;1719275;82;21053;-74
2022/04/15 11:24:05;;;;;;;3.37;1.12;;;;;;;18.92;25.59;100233.88;1718890;82;21038;-74
2022/04/15 11:26:36;;;;;;;2.05;1.12;;;;;;;18.99;25.12;100231.84;1708901;82;21046;-72
2022/04/15 11:29:05;;;;;;;3.30;1.05;;;;;;;18.99;25.07;100238.59;1708730;82;21129;-72
2022/04/15 11:31:41;;;;;;;2.42;0.90;;;;;;;18.93;24.85;100230.10;1708817;82;21641;-72
2022/04/15 11:34:20;;;;;;;1.80;0.80;;;;;;;18.90;25.08;100222.52;1708625;82;21074;-73